Stations météo

réclame
Mon MeteoGroup
Humain, Belgique (6472): Température de l'air & dewpoint: 18.11.2017 15:00:00 - 24.11.2017 15:00:00 (CET)Humain, Belgique (6472): Vitesse du vent & gusts: 18.11.2017 15:00:00 - 24.11.2017 15:00:00 (CET)Humain, Belgique (6472): Direction du vent: 18.11.2017 15:00:00 - 24.11.2017 15:00:00 (CET)Humain, Belgique (6472): reduced air pressure: 18.11.2017 15:00:00 - 24.11.2017 15:00:00 (CET)Humain, Belgique (6472): Ensoleillement: 18.11.2017 15:00:00 - 24.11.2017 15:00:00 (CET)Humain, Belgique (6472): Quantités de précipitations: 18.11.2017 15:00:00 - 24.11.2017 15:00:00 (CET)
Date & Time tt [°C] td [°C] ff [km/h] ff [knt] fx [km/h] fx [knt] dd ppp [hPa] sd [min] rr [mm]
24.11.2017 15:00:00 - - - - - - - - - -
24.11.2017 14:00:00 7,2 6,0 8 4 12 6 WSW 1012,9 0 0,0
24.11.2017 13:00:00 7,2 6,3 7 4 11 6 SW 1012,6 0 0,0
24.11.2017 12:00:00 6,7 6,3 6 3 25 13 WNW 1012,5 0 0,0
24.11.2017 11:00:00 7,1 6,5 14 8 24 13 WNW 1011,7 0 0,0
24.11.2017 10:00:00 7,5 6,6 11 6 37 20 NW 1010,3 0 0,0
24.11.2017 09:00:00 10,8 8,9 25 14 47 25 SW 1008,6 0 0,0
24.11.2017 08:00:00 10,6 8,8 22 12 51 28 SSW 1007,8 0 0,0
24.11.2017 07:00:00 10,7 8,6 32 18 63 34 SSW 1007,2 0 0,0
24.11.2017 06:00:00 10,8 9,0 32 17 62 33 SSW 1007,1 0 0,0
24.11.2017 05:00:00 10,9 9,8 35 19 54 29 S 1007,1 0 0,0
24.11.2017 04:00:00 9,0 8,6 10 5 21 12 SW 1007,9 0 0,0
24.11.2017 03:00:00 9,4 9,0 13 7 21 11 S 1008,3 0 0,0
24.11.2017 02:00:00 8,2 7,7 9 5 12 6 ESE 1009,7 0 0,0
24.11.2017 01:00:00 8,3 7,6 4 2 14 8 SSW 1010,9 0 0,0
24.11.2017 00:00:00 8,9 8,1 11 6 20 11 W 1011,5 0 0,0
23.11.2017 23:00:00 9,7 8,7 12 6 18 10 SW 1011,2 0 0,0
23.11.2017 22:00:00 9,5 8,4 9 5 14 8 SSW 1011,3 0 0,0
23.11.2017 21:00:00 9,9 8,6 10 5 15 8 WSW 1011,2 0 0,0
23.11.2017 20:00:00 9,1 7,5 8 5 23 12 SSW 1010,7 0 0,0
23.11.2017 19:00:00 9,9 8,0 14 8 30 16 SW 1010,3 0 0,0
23.11.2017 18:00:00 11,5 9,5 22 12 36 19 WSW 1009,2 0 0,0
23.11.2017 17:00:00 12,0 9,0 21 11 48 26 SSW 1008,1 7 0,0
23.11.2017 16:00:00 13,1 8,3 28 15 56 31 SSW 1007,1 26 0,0
23.11.2017 15:00:00 13,3 8,4 34 18 58 31 SSW 1005,9 4 0,0
23.11.2017 14:00:00 12,8 8,1 35 19 56 30 SSW 1006,2 5 0,0
23.11.2017 13:00:00 12,5 7,7 36 19 61 33 SSW 1005,9 0 0,0
23.11.2017 12:00:00 11,9 7,1 37 20 61 33 SSW 1005,5 0 0,0
23.11.2017 11:00:00 11,9 6,6 37 20 71 39 SSW 1005,0 2 0,0
23.11.2017 10:00:00 12,4 5,5 36 19 73 40 SSW 1004,0 2 0,0
23.11.2017 09:00:00 12,4 4,7 40 21 69 38 S 1002,9 0 0,0
23.11.2017 08:00:00 11,5 4,2 27 14 54 29 S 1002,5 0 0,0
23.11.2017 07:00:00 10,7 4,1 22 12 42 23 S 1002,7 0 0,0
23.11.2017 06:00:00 9,5 3,5 22 12 47 26 S 1002,9 0 0,0
23.11.2017 05:00:00 9,0 3,0 22 12 54 29 S 1003,2 0 0,0
23.11.2017 04:00:00 9,3 2,9 26 14 47 25 S 1003,5 0 0,0
23.11.2017 03:00:00 9,2 2,8 24 13 49 27 S 1004,2 0 0,0
23.11.2017 02:00:00 8,9 2,6 23 13 57 31 S 1004,6 0 0,0
23.11.2017 01:00:00 9,3 2,0 25 14 45 25 S 1005,1 0 0,0
23.11.2017 00:00:00 9,8 2,1 23 12 50 27 S 1005,2 0 0,0
22.11.2017 23:00:00 10,8 2,1 27 15 45 24 S 1004,9 0 0,0
22.11.2017 22:00:00 10,2 2,5 16 9 49 26 S 1005,7 0 0,0
22.11.2017 21:00:00 10,4 2,1 22 12 44 24 S 1005,8 0 0,0
22.11.2017 20:00:00 10,2 1,9 22 12 40 22 S 1006,3 0 0,0
22.11.2017 19:00:00 9,2 3,0 18 10 40 22 S 1007,0 0 0,0
22.11.2017 18:00:00 8,7 4,4 22 12 34 19 S 1007,8 0 0,0
22.11.2017 17:00:00 9,7 4,0 17 9 30 16 S 1008,0 45 0,0
22.11.2017 16:00:00 10,5 4,8 15 8 31 17 S 1008,4 60 0,0
22.11.2017 15:00:00 10,7 5,1 13 7 38 20 S 1009,2 60 0,0
22.11.2017 14:00:00 10,9 5,0 21 11 39 21 S 1009,4 60 0,0
22.11.2017 13:00:00 10,1 5,8 18 10 35 19 S 1010,4 60 0,0
22.11.2017 12:00:00 8,8 5,6 24 13 36 20 S 1011,4 60 0,0
22.11.2017 11:00:00 8,2 5,5 23 12 38 20 S 1011,8 60 0,0
22.11.2017 10:00:00 7,6 5,4 21 11 37 20 S 1011,7 55 0,0
22.11.2017 09:00:00 7,8 5,7 22 12 44 24 SSW 1011,8 14 0,0
22.11.2017 08:00:00 7,9 5,9 25 13 40 22 SSW 1011,6 0 0,0
22.11.2017 07:00:00 7,9 6,0 25 14 38 21 SSW 1011,4 0 0,0
22.11.2017 06:00:00 8,1 6,2 22 12 36 20 SSW 1012,0 0 0,0
22.11.2017 05:00:00 8,0 6,1 29 16 45 25 SSW 1012,0 0 0,0
22.11.2017 04:00:00 7,9 6,0 29 16 41 22 SSW 1012,1 0 0,0
22.11.2017 03:00:00 8,0 5,9 25 13 45 24 SSW 1012,7 0 0,0
22.11.2017 02:00:00 7,7 6,1 25 13 40 22 SSW 1013,3 0 0,0
22.11.2017 01:00:00 7,7 5,9 25 14 40 22 SSW 1013,6 0 0,0
22.11.2017 00:00:00 7,4 5,8 26 14 38 21 SSW 1013,8 0 0,0
21.11.2017 23:00:00 7,2 5,7 23 12 32 18 SSW 1014,2 0 0,0
21.11.2017 22:00:00 7,2 5,7 24 13 37 20 SSW 1014,6 0 0,0
21.11.2017 21:00:00 7,0 5,5 21 11 35 19 S 1015,0 0 0,0
21.11.2017 20:00:00 7,0 5,7 23 13 35 19 SSW 1015,3 0 0,0
21.11.2017 19:00:00 6,7 5,7 22 12 34 19 SSW 1015,5 0 0,0
21.11.2017 18:00:00 6,7 5,6 21 11 33 18 SSW 1015,6 0 0,0
21.11.2017 17:00:00 6,9 5,6 22 12 34 18 SSW 1015,6 0 0,0
21.11.2017 16:00:00 7,0 5,7 23 13 38 21 SSW 1015,7 0 0,0
21.11.2017 15:00:00 - - - - - - - - 0 -
21.11.2017 14:00:00 7,6 6,3 26 14 40 21 SW 1016,2 0 0,0
21.11.2017 13:00:00 7,9 7,0 25 14 37 20 SW 1016,5 0 0,0
21.11.2017 12:00:00 7,9 7,7 19 11 34 18 SW 1016,7 0 0,0
21.11.2017 11:00:00 8,0 7,8 22 12 35 19 SW 1016,9 0 0,0
21.11.2017 10:00:00 8,0 7,8 23 12 35 19 SSW 1016,5 0 0,0
21.11.2017 09:00:00 8,1 7,9 19 11 31 17 SSW 1016,4 0 0,0
21.11.2017 08:00:00 8,3 8,1 19 10 32 17 SW 1015,9 0 0,0
21.11.2017 07:00:00 8,4 8,2 22 12 30 16 SW 1015,6 0 0,0
21.11.2017 06:00:00 8,4 8,2 20 11 34 18 SW 1015,6 0 0,0
21.11.2017 05:00:00 8,4 8,2 19 11 32 17 SW 1015,7 0 0,0
21.11.2017 04:00:00 8,6 8,3 17 9 33 18 SW 1015,6 0 0,0
21.11.2017 03:00:00 8,4 8,1 19 11 32 17 SW 1015,9 0 0,0
21.11.2017 02:00:00 8,2 8,0 18 10 32 18 SW 1015,9 0 0,0
21.11.2017 01:00:00 8,0 7,8 18 10 34 18 WSW 1016,1 0 0,0
21.11.2017 00:00:00 7,6 7,3 19 10 35 19 SW 1016,2 0 0,0
20.11.2017 23:00:00 7,3 7,0 22 12 33 18 SW 1016,0 0 0,0
20.11.2017 22:00:00 7,1 6,9 21 11 36 19 SW 1016,4 0 0,0
20.11.2017 21:00:00 6,8 6,6 23 12 33 18 SSW 1016,4 0 0,0
20.11.2017 20:00:00 6,0 5,8 21 11 32 18 SSW 1016,6 0 0,0
20.11.2017 19:00:00 6,0 5,7 21 11 33 18 SSW 1016,8 0 0,0
20.11.2017 18:00:00 5,7 5,4 22 12 34 19 SSW 1017,2 0 0,0
20.11.2017 17:00:00 4,8 4,6 19 10 37 20 SSW 1017,6 0 0,0
20.11.2017 16:00:00 4,3 4,0 23 13 33 18 SSW 1018,1 0 0,0
20.11.2017 15:00:00 4,1 3,7 23 12 32 18 SSW 1018,7 0 0,0
20.11.2017 14:00:00 4,0 3,4 22 12 38 20 SSW 1019,4 0 0,0
20.11.2017 13:00:00 3,6 2,9 22 12 35 19 SSW 1020,2 0 0,0
20.11.2017 12:00:00 3,5 2,0 23 12 32 18 SSW 1021,5 0 0,0
20.11.2017 11:00:00 3,1 1,9 18 10 28 15 SSW 1022,1 0 0,0
20.11.2017 10:00:00 2,2 1,1 11 6 24 13 S 1023,0 0 0,0
20.11.2017 09:00:00 1,7 0,8 14 7 20 11 S 1023,7 0 0,0
20.11.2017 08:00:00 1,2 0,5 13 7 23 13 S 1023,5 0 0,0
20.11.2017 07:00:00 0,8 0,4 14 8 21 11 S 1023,6 0 0,0
20.11.2017 06:00:00 0,2 -0,1 8 5 15 8 S 1024,0 0 0,0
20.11.2017 05:00:00 -0,2 -0,4 6 3 14 7 S 1024,4 0 0,0
20.11.2017 04:00:00 -0,6 -0,8 7 4 14 7 S 1024,8 0 0,0
20.11.2017 03:00:00 -0,2 -0,3 7 4 13 7 S 1025,0 0 0,0
20.11.2017 02:00:00 -0,1 -0,2 10 6 14 8 SSW 1025,3 0 0,0
20.11.2017 01:00:00 0,2 0,0 7 4 12 6 S 1025,7 0 0,0
20.11.2017 00:00:00 0,2 0,0 9 5 16 8 S 1026,1 0 0,0
19.11.2017 23:00:00 0,5 0,0 12 6 16 8 SSW 1026,1 0 0,0
19.11.2017 22:00:00 0,9 0,3 11 6 16 9 SW 1025,9 0 0,0
19.11.2017 21:00:00 0,7 -0,3 10 5 17 9 SSW 1025,4 0 0,0
19.11.2017 20:00:00 2,0 0,4 12 7 21 11 WSW 1024,9 0 0,0
19.11.2017 19:00:00 2,8 0,6 14 8 20 11 W 1024,1 0 0,0
19.11.2017 18:00:00 3,3 0,9 13 7 24 13 W 1023,6 0 0,0
19.11.2017 17:00:00 5,2 1,5 19 10 27 15 W 1023,0 20 0,0
19.11.2017 16:00:00 5,6 1,7 18 10 29 16 W 1022,7 9 0,0
19.11.2017 15:00:00 5,2 2,4 11 6 25 14 W 1022,6 0 0,0
19.11.2017 14:00:00 5,0 2,0 14 8 35 19 WNW 1022,6 1 0,0
19.11.2017 13:00:00 5,8 1,1 14 8 28 15 WNW 1022,3 43 0,0
19.11.2017 12:00:00 5,4 1,4 17 9 29 16 WNW 1022,0 35 0,0
19.11.2017 11:00:00 4,4 1,2 15 8 27 14 WNW 1022,1 53 0,0
19.11.2017 10:00:00 3,0 0,5 16 8 22 12 W 1021,6 43 0,0
19.11.2017 09:00:00 2,3 0,3 12 6 17 9 W 1021,3 19 0,0
19.11.2017 08:00:00 2,2 0,1 11 6 16 8 W 1020,6 0 0,0
19.11.2017 07:00:00 2,6 0,3 11 6 16 9 W 1019,9 0 0,0
19.11.2017 06:00:00 2,9 0,6 8 4 17 9 W 1019,8 0 0,0
19.11.2017 05:00:00 4,3 1,9 11 6 18 10 WNW 1019,1 0 0,0
19.11.2017 04:00:00 4,7 3,2 9 5 19 11 WNW 1018,9 0 0,0
19.11.2017 03:00:00 5,2 4,3 12 7 29 15 WNW 1018,6 0 0,0
19.11.2017 02:00:00 5,5 5,1 11 6 20 11 WSW 1018,3 0 0,0
19.11.2017 01:00:00 5,7 5,4 11 6 30 16 WSW 1018,5 0 0,0
19.11.2017 00:00:00 5,6 5,3 16 9 28 15 W 1018,8 0 0,0
18.11.2017 23:00:00 5,2 4,9 17 9 23 12 SW 1018,9 0 0,0
18.11.2017 22:00:00 4,5 4,3 14 8 21 12 SW 1019,6 0 0,0
18.11.2017 21:00:00 3,8 3,5 14 7 20 11 SSW 1020,3 0 0,0
18.11.2017 20:00:00 3,7 3,1 15 8 24 13 S 1020,8 0 0,0
18.11.2017 19:00:00 3,6 2,3 18 10 24 13 SW 1021,6 0 0,0
18.11.2017 18:00:00 3,4 1,6 16 8 23 13 SSW 1021,9 0 0,0
18.11.2017 17:00:00 4,0 1,2 16 9 26 14 SSW 1022,2 0 0,0
18.11.2017 16:00:00 4,8 1,5 19 10 31 17 SW 1022,4 3 0,0
18.11.2017 15:00:00 4,2 1,9 18 10 30 16 SW 1022,7 4 0,0

tt = Température de l'air
td = dewpoint
ff = Vitesse du vent
fx = gusts
dd = Direction du vent
ppp = reduced air pressure
sd = Ensoleillement
rr = Quantités de précipitations

stations d'obs. à proximité